sensor_id;sensor_type;location;lat;lon;timestamp;pressure;altitude;pressure_sealevel;temperature;humidity
71384;BME280;67558;52.166;5.004;2023-07-13T00:00:17;101394.34;;;22.61;51.50
71384;BME280;67558;52.166;5.004;2023-07-13T00:02:43;101389.56;;;22.58;51.56
71384;BME280;67558;52.166;5.004;2023-07-13T00:05:09;101382.69;;;22.52;51.78
71384;BME280;67558;52.166;5.004;2023-07-13T00:07:35;101396.25;;;22.60;51.55
71384;BME280;67558;52.166;5.004;2023-07-13T00:10:02;101391.63;;;22.61;51.54
71384;BME280;67558;52.166;5.004;2023-07-13T00:12:35;101398.88;;;22.57;51.95
71384;BME280;67558;52.166;5.004;2023-07-13T00:15:05;101399.66;;;22.57;51.83
71384;BME280;67558;52.166;5.004;2023-07-13T00:17:30;101386.56;;;22.21;52.41
71384;BME280;67558;52.166;5.004;2023-07-13T00:19:56;101395.59;;;22.13;52.89
71384;BME280;67558;52.166;5.004;2023-07-13T00:22:22;101397.38;;;22.08;53.15
71384;BME280;67558;52.166;5.004;2023-07-13T00:24:50;101388.16;;;22.01;53.18
71384;BME280;67558;52.166;5.004;2023-07-13T00:27:17;101387.19;;;21.97;53.32
71384;BME280;67558;52.166;5.004;2023-07-13T00:29:43;101386.72;;;21.95;53.34
71384;BME280;67558;52.166;5.004;2023-07-13T00:32:09;101400.03;;;21.96;53.41
71384;BME280;67558;52.166;5.004;2023-07-13T00:34:36;101396.84;;;21.94;53.68
71384;BME280;67558;52.166;5.004;2023-07-13T00:37:02;101390.13;;;21.83;53.51
71384;BME280;67558;52.166;5.004;2023-07-13T00:39:27;101363.47;;;21.67;53.23
71384;BME280;67558;52.166;5.004;2023-07-13T00:41:53;101386.84;;;22.07;53.01
71384;BME280;67558;52.166;5.004;2023-07-13T00:44:19;101396.53;;;22.17;52.27
71384;BME280;67558;52.166;5.004;2023-07-13T00:46:45;101383.91;;;22.12;52.50
71384;BME280;67558;52.166;5.004;2023-07-13T00:49:15;101394.94;;;22.16;52.15
71384;BME280;67558;52.166;5.004;2023-07-13T00:51:55;101401.03;;;22.13;52.60
71384;BME280;67558;52.166;5.004;2023-07-13T00:54:29;101384.09;;;22.07;52.21
71384;BME280;67558;52.166;5.004;2023-07-13T00:56:58;101403.28;;;22.11;52.16
71384;BME280;67558;52.166;5.004;2023-07-13T00:59:25;101405.56;;;22.08;52.36
71384;BME280;67558;52.166;5.004;2023-07-13T01:01:50;101365.31;;;21.84;52.41
71384;BME280;67558;52.166;5.004;2023-07-13T01:04:17;101404.28;;;22.06;52.26
71384;BME280;67558;52.166;5.004;2023-07-13T01:06:43;101404.13;;;22.02;52.35
71384;BME280;67558;52.166;5.004;2023-07-13T01:09:09;101381.31;;;21.86;53.02
71384;BME280;67558;52.166;5.004;2023-07-13T01:11:35;101409.47;;;21.99;52.93
71384;BME280;67558;52.166;5.004;2023-07-13T01:14:02;101401.13;;;21.95;52.93
71384;BME280;67558;52.166;5.004;2023-07-13T01:16:30;101398.41;;;21.95;53.10
71384;BME280;67558;52.166;5.004;2023-07-13T01:18:56;101407.69;;;22.03;52.74
71384;BME280;67558;52.166;5.004;2023-07-13T01:21:27;101380.53;;;21.85;52.86
71384;BME280;67558;52.166;5.004;2023-07-13T01:23:53;101398.09;;;21.97;52.72
71384;BME280;67558;52.166;5.004;2023-07-13T01:26:19;101400.47;;;21.98;52.78
71384;BME280;67558;52.166;5.004;2023-07-13T01:28:44;101407.53;;;21.99;53.00
71384;BME280;67558;52.166;5.004;2023-07-13T01:31:10;101411.25;;;21.95;53.21
71384;BME280;67558;52.166;5.004;2023-07-13T01:33:39;101416.53;;;21.91;53.50
71384;BME280;67558;52.166;5.004;2023-07-13T01:36:09;101409.16;;;21.92;53.65
71384;BME280;67558;52.166;5.004;2023-07-13T01:38:36;101385.41;;;21.71;53.53
71384;BME280;67558;52.166;5.004;2023-07-13T01:41:02;101406.47;;;21.83;53.51
71384;BME280;67558;52.166;5.004;2023-07-13T01:43:28;101421.50;;;21.89;53.60
71384;BME280;67558;52.166;5.004;2023-07-13T01:45:53;101412.44;;;21.76;53.88
71384;BME280;67558;52.166;5.004;2023-07-13T01:48:19;101400.63;;;21.63;53.87
71384;BME280;67558;52.166;5.004;2023-07-13T01:50:45;101417.56;;;21.78;53.93
71384;BME280;67558;52.166;5.004;2023-07-13T01:53:11;101423.47;;;21.80;53.76
71384;BME280;67558;52.166;5.004;2023-07-13T01:55:37;101408.94;;;21.67;54.01
71384;BME280;67558;52.166;5.004;2023-07-13T01:58:03;101414.41;;;21.67;53.69
71384;BME280;67558;52.166;5.004;2023-07-13T02:00:29;101419.06;;;21.66;53.85
71384;BME280;67558;52.166;5.004;2023-07-13T02:02:54;101425.75;;;21.69;54.19
71384;BME280;67558;52.166;5.004;2023-07-13T02:05:20;101436.81;;;21.73;54.34
71384;BME280;67558;52.166;5.004;2023-07-13T02:07:45;101425.59;;;21.65;54.37
71384;BME280;67558;52.166;5.004;2023-07-13T02:10:11;101427.84;;;21.63;54.17
71384;BME280;67558;52.166;5.004;2023-07-13T02:12:37;101419.88;;;21.58;54.42
71384;BME280;67558;52.166;5.004;2023-07-13T02:15:04;101432.19;;;21.64;54.50
71384;BME280;67558;52.166;5.004;2023-07-13T02:17:30;101441.47;;;21.63;54.24
71384;BME280;67558;52.166;5.004;2023-07-13T02:19:55;101452.69;;;21.62;54.27
71384;BME280;67558;52.166;5.004;2023-07-13T02:22:21;101447.25;;;21.62;54.22
71384;BME280;67558;52.166;5.004;2023-07-13T02:24:47;101435.41;;;21.58;54.38
71384;BME280;67558;52.166;5.004;2023-07-13T02:27:12;101434.13;;;21.55;54.40
71384;BME280;67558;52.166;5.004;2023-07-13T02:29:38;101421.50;;;21.42;54.60
71384;BME280;67558;52.166;5.004;2023-07-13T02:32:03;101434.47;;;21.45;54.83
71384;BME280;67558;52.166;5.004;2023-07-13T02:34:29;101438.00;;;21.45;54.70
71384;BME280;67558;52.166;5.004;2023-07-13T02:36:54;101439.09;;;21.44;54.88
71384;BME280;67558;52.166;5.004;2023-07-13T02:39:19;101443.28;;;21.42;55.08
71384;BME280;67558;52.166;5.004;2023-07-13T02:41:45;101437.50;;;21.35;54.94
71384;BME280;67558;52.166;5.004;2023-07-13T02:44:12;101442.94;;;21.35;55.18
71384;BME280;67558;52.166;5.004;2023-07-13T02:46:38;101443.25;;;21.33;55.23
71384;BME280;67558;52.166;5.004;2023-07-13T02:49:04;101437.03;;;21.24;55.55
71384;BME280;67558;52.166;5.004;2023-07-13T02:51:29;101449.66;;;21.28;55.37
71384;BME280;67558;52.166;5.004;2023-07-13T02:53:55;101447.63;;;21.25;55.93
71384;BME280;67558;52.166;5.004;2023-07-13T02:56:26;101441.22;;;21.21;55.61
71384;BME280;67558;52.166;5.004;2023-07-13T02:58:52;101431.13;;;21.13;55.98
71384;BME280;67558;52.166;5.004;2023-07-13T03:01:18;101424.91;;;21.13;55.97
71384;BME280;67558;52.166;5.004;2023-07-13T03:03:48;101440.56;;;21.16;55.94
71384;BME280;67558;52.166;5.004;2023-07-13T03:06:14;101444.06;;;21.16;55.88
71384;BME280;67558;52.166;5.004;2023-07-13T03:08:40;101441.53;;;21.11;55.89
71384;BME280;67558;52.166;5.004;2023-07-13T03:11:12;101440.88;;;21.05;56.24
71384;BME280;67558;52.166;5.004;2023-07-13T03:13:40;101452.41;;;21.11;56.22
71384;BME280;67558;52.166;5.004;2023-07-13T03:16:06;101451.44;;;21.07;56.29
71384;BME280;67558;52.166;5.004;2023-07-13T03:18:31;101455.78;;;21.08;56.51
71384;BME280;67558;52.166;5.004;2023-07-13T03:20:57;101441.38;;;20.99;56.39
71384;BME280;67558;52.166;5.004;2023-07-13T03:23:23;101439.13;;;21.01;56.38
71384;BME280;67558;52.166;5.004;2023-07-13T03:25:50;101440.56;;;20.98;56.43
71384;BME280;67558;52.166;5.004;2023-07-13T03:28:16;101434.66;;;20.88;56.29
71384;BME280;67558;52.166;5.004;2023-07-13T03:30:41;101455.63;;;20.96;56.49
71384;BME280;67558;52.166;5.004;2023-07-13T03:33:08;101454.34;;;20.93;56.61
71384;BME280;67558;52.166;5.004;2023-07-13T03:35:34;101453.88;;;20.91;56.45
71384;BME280;67558;52.166;5.004;2023-07-13T03:38:00;101448.91;;;20.84;56.49
71384;BME280;67558;52.166;5.004;2023-07-13T03:40:27;101450.00;;;20.83;56.53
71384;BME280;67558;52.166;5.004;2023-07-13T03:42:52;101462.81;;;20.92;56.57
71384;BME280;67558;52.166;5.004;2023-07-13T03:45:19;101457.06;;;20.84;56.74
71384;BME280;67558;52.166;5.004;2023-07-13T03:47:45;101445.84;;;20.77;56.56
71384;BME280;67558;52.166;5.004;2023-07-13T03:50:10;101439.44;;;20.73;56.71
71384;BME280;67558;52.166;5.004;2023-07-13T03:52:36;101447.47;;;20.78;56.62
71384;BME280;67558;52.166;5.004;2023-07-13T03:55:01;101462.81;;;20.92;56.79
71384;BME280;67558;52.166;5.004;2023-07-13T03:57:27;101459.63;;;20.90;56.42
71384;BME280;67558;52.166;5.004;2023-07-13T03:59:52;101466.31;;;20.92;56.35
71384;BME280;67558;52.166;5.004;2023-07-13T04:02:18;101466.63;;;20.91;56.89
71384;BME280;67558;52.166;5.004;2023-07-13T04:04:43;101475.94;;;20.90;56.86
71384;BME280;67558;52.166;5.004;2023-07-13T04:07:09;101488.25;;;20.87;56.75
71384;BME280;67558;52.166;5.004;2023-07-13T04:09:35;101484.56;;;20.92;56.83
71384;BME280;67558;52.166;5.004;2023-07-13T04:12:00;101487.47;;;20.86;57.02
71384;BME280;67558;52.166;5.004;2023-07-13T04:14:25;101481.38;;;20.90;57.02
71384;BME280;67558;52.166;5.004;2023-07-13T04:16:51;101471.44;;;20.85;56.87
71384;BME280;67558;52.166;5.004;2023-07-13T04:19:17;101486.97;;;20.93;57.20
71384;BME280;67558;52.166;5.004;2023-07-13T04:21:42;101482.94;;;20.91;57.14
71384;BME280;67558;52.166;5.004;2023-07-13T04:24:07;101460.41;;;20.81;56.93
71384;BME280;67558;52.166;5.004;2023-07-13T04:26:33;101492.56;;;21.05;57.38
71384;BME280;67558;52.166;5.004;2023-07-13T04:29:01;101477.69;;;21.03;57.24
71384;BME280;67558;52.166;5.004;2023-07-13T04:31:29;101472.41;;;20.98;56.98
71384;BME280;67558;52.166;5.004;2023-07-13T04:33:54;101462.03;;;20.91;57.19
71384;BME280;67558;52.166;5.004;2023-07-13T04:36:20;101494.50;;;21.14;56.94
71384;BME280;67558;52.166;5.004;2023-07-13T04:38:45;101499.63;;;21.15;57.14
71384;BME280;67558;52.166;5.004;2023-07-13T04:41:13;101501.06;;;21.21;57.27
71384;BME280;67558;52.166;5.004;2023-07-13T04:43:40;101506.34;;;21.26;57.29
71384;BME280;67558;52.166;5.004;2023-07-13T04:46:07;101509.53;;;21.28;57.00
71384;BME280;67558;52.166;5.004;2023-07-13T04:48:33;101506.19;;;21.32;57.30
71384;BME280;67558;52.166;5.004;2023-07-13T04:50:59;101502.97;;;21.30;57.21
71384;BME280;67558;52.166;5.004;2023-07-13T04:53:26;101504.41;;;21.36;57.43
71384;BME280;67558;52.166;5.004;2023-07-13T04:55:51;101492.09;;;21.30;57.40
71384;BME280;67558;52.166;5.004;2023-07-13T04:58:17;101499.78;;;21.36;57.67
71384;BME280;67558;52.166;5.004;2023-07-13T05:00:43;101494.81;;;21.38;57.33
71384;BME280;67558;52.166;5.004;2023-07-13T05:03:08;101495.91;;;21.37;57.44
71384;BME280;67558;52.166;5.004;2023-07-13T05:05:33;101495.94;;;21.46;57.38
71384;BME280;67558;52.166;5.004;2023-07-13T05:07:59;101504.44;;;21.53;57.51
71384;BME280;67558;52.166;5.004;2023-07-13T05:10:24;101504.25;;;21.58;57.61
71384;BME280;67558;52.166;5.004;2023-07-13T05:12:50;101511.28;;;21.59;57.34
71384;BME280;67558;52.166;5.004;2023-07-13T05:15:16;101513.53;;;21.57;57.34
71384;BME280;67558;52.166;5.004;2023-07-13T05:17:46;101506.81;;;21.55;57.54
71384;BME280;67558;52.166;5.004;2023-07-13T05:20:12;101510.00;;;21.57;57.65
71384;BME280;67558;52.166;5.004;2023-07-13T05:22:37;101516.56;;;21.64;57.83
71384;BME280;67558;52.166;5.004;2023-07-13T05:25:04;101523.59;;;21.74;57.56
71384;BME280;67558;52.166;5.004;2023-07-13T05:27:30;101525.34;;;21.79;57.66
71384;BME280;67558;52.166;5.004;2023-07-13T05:29:55;101526.78;;;21.85;57.94
71384;BME280;67558;52.166;5.004;2023-07-13T05:32:21;101496.72;;;21.73;57.98
71384;BME280;67558;52.166;5.004;2023-07-13T05:34:46;101506.28;;;21.79;57.61
71384;BME280;67558;52.166;5.004;2023-07-13T05:37:11;101525.75;;;21.98;57.43
71384;BME280;67558;52.166;5.004;2023-07-13T05:39:37;101480.66;;;21.80;57.61
71384;BME280;67558;52.166;5.004;2023-07-13T05:42:02;101534.03;;;22.19;57.19
71384;BME280;67558;52.166;5.004;2023-07-13T05:44:28;101514.69;;;22.12;57.35
71384;BME280;67558;52.166;5.004;2023-07-13T05:46:54;101538.69;;;22.27;57.29
71384;BME280;67558;52.166;5.004;2023-07-13T05:49:23;101541.88;;;22.29;57.27
71384;BME280;67558;52.166;5.004;2023-07-13T05:51:48;101532.25;;;22.32;57.47
71384;BME280;67558;52.166;5.004;2023-07-13T05:54:13;101541.06;;;22.38;57.06
71384;BME280;67558;52.166;5.004;2023-07-13T05:56:39;101496.56;;;22.16;57.21
71384;BME280;67558;52.166;5.004;2023-07-13T05:59:04;101554.41;;;22.60;57.20
71384;BME280;67558;52.166;5.004;2023-07-13T06:01:30;101529.44;;;22.49;57.06
71384;BME280;67558;52.166;5.004;2023-07-13T06:03:56;101540.91;;;22.64;56.83
71384;BME280;67558;52.166;5.004;2023-07-13T06:06:21;101514.81;;;22.54;57.25
71384;BME280;67558;52.166;5.004;2023-07-13T06:08:47;101560.69;;;22.82;56.93
71384;BME280;67558;52.166;5.004;2023-07-13T06:11:21;101537.47;;;22.76;56.93
71384;BME280;67558;52.166;5.004;2023-07-13T06:13:47;101563.31;;;22.99;56.77
71384;BME280;67558;52.166;5.004;2023-07-13T06:16:13;101566.00;;;23.08;57.26
71384;BME280;67558;52.166;5.004;2023-07-13T06:18:39;101561.47;;;23.12;56.58
71384;BME280;67558;52.166;5.004;2023-07-13T06:21:17;101558.28;;;23.10;56.52
71384;BME280;67558;52.166;5.004;2023-07-13T06:23:44;101561.41;;;23.21;56.74
71384;BME280;67558;52.166;5.004;2023-07-13T06:26:10;101551.03;;;23.14;56.63
71384;BME280;67558;52.166;5.004;2023-07-13T06:28:36;101564.63;;;23.23;56.17
71384;BME280;67558;52.166;5.004;2023-07-13T06:31:05;101574.56;;;23.27;56.45
71384;BME280;67558;52.166;5.004;2023-07-13T06:33:31;101557.78;;;23.17;56.49
71384;BME280;67558;52.166;5.004;2023-07-13T06:35:56;101568.28;;;23.27;56.33
71384;BME280;67558;52.166;5.004;2023-07-13T06:38:22;101564.53;;;23.31;56.34
71384;BME280;67558;52.166;5.004;2023-07-13T06:40:47;101544.72;;;23.22;56.05
71384;BME280;67558;52.166;5.004;2023-07-13T06:43:13;101564.13;;;23.00;57.55
71384;BME280;67558;52.166;5.004;2023-07-13T06:45:43;101584.06;;;22.92;58.04
71384;BME280;67558;52.166;5.004;2023-07-13T06:48:11;101580.59;;;22.82;58.41
71384;BME280;67558;52.166;5.004;2023-07-13T06:50:37;101601.75;;;22.85;58.38
71384;BME280;67558;52.166;5.004;2023-07-13T06:53:02;101566.28;;;22.56;58.72
71384;BME280;67558;52.166;5.004;2023-07-13T06:55:27;101599.75;;;22.65;58.85
71384;BME280;67558;52.166;5.004;2023-07-13T06:57:53;101596.16;;;22.52;59.31
71384;BME280;67558;52.166;5.004;2023-07-13T07:00:18;101609.13;;;22.55;59.12
71384;BME280;67558;52.166;5.004;2023-07-13T07:02:44;101593.66;;;22.29;59.22
71384;BME280;67558;52.166;5.004;2023-07-13T07:05:09;101620.53;;;22.48;58.62
71384;BME280;67558;52.166;5.004;2023-07-13T07:07:35;101628.06;;;22.52;58.50
71384;BME280;67558;52.166;5.004;2023-07-13T07:10:00;101635.16;;;22.44;58.66
71384;BME280;67558;52.166;5.004;2023-07-13T07:12:25;101628.91;;;22.35;58.30
71384;BME280;67558;52.166;5.004;2023-07-13T07:14:51;101615.47;;;22.21;58.60
71384;BME280;67558;52.166;5.004;2023-07-13T07:17:16;101610.19;;;22.16;58.66
71384;BME280;67558;52.166;5.004;2023-07-13T07:19:42;101570.81;;;21.87;58.92
71384;BME280;67558;52.166;5.004;2023-07-13T07:22:07;101599.66;;;21.88;58.87
71384;BME280;67558;52.166;5.004;2023-07-13T07:24:33;101607.84;;;21.71;59.79
71384;BME280;67558;52.166;5.004;2023-07-13T07:26:58;101616.66;;;21.67;60.05
71384;BME280;67558;52.166;5.004;2023-07-13T07:29:24;101619.38;;;21.67;60.74
71384;BME280;67558;52.166;5.004;2023-07-13T07:31:51;101596.16;;;21.70;60.88
71384;BME280;67558;52.166;5.004;2023-07-13T07:34:17;101551.63;;;21.57;61.02
71384;BME280;67558;52.166;5.004;2023-07-13T07:36:42;101608.28;;;22.07;61.33
71384;BME280;67558;52.166;5.004;2023-07-13T07:39:07;101620.75;;;22.26;61.51
71384;BME280;67558;52.166;5.004;2023-07-13T07:41:33;101620.00;;;22.64;60.17
71384;BME280;67558;52.166;5.004;2023-07-13T07:43:58;101603.06;;;22.79;59.79
71384;BME280;67558;52.166;5.004;2023-07-13T07:46:24;101595.63;;;22.88;60.04
71384;BME280;67558;52.166;5.004;2023-07-13T07:48:49;101626.44;;;23.19;59.57
71384;BME280;67558;52.166;5.004;2023-07-13T07:51:14;101622.34;;;23.34;59.69
71384;BME280;67558;52.166;5.004;2023-07-13T07:53:40;101607.81;;;23.42;59.30
71384;BME280;67558;52.166;5.004;2023-07-13T07:56:05;101614.28;;;23.58;59.17
71384;BME280;67558;52.166;5.004;2023-07-13T07:58:30;101579.72;;;23.41;59.07
71384;BME280;67558;52.166;5.004;2023-07-13T08:01:05;101615.94;;;23.50;60.15
71384;BME280;67558;52.166;5.004;2023-07-13T08:03:31;101601.81;;;23.48;59.81
71384;BME280;67558;52.166;5.004;2023-07-13T08:05:57;101610.41;;;23.59;59.70
71384;BME280;67558;52.166;5.004;2023-07-13T08:08:23;101603.56;;;23.53;59.62
71384;BME280;67558;52.166;5.004;2023-07-13T08:10:48;101609.28;;;23.60;59.97
71384;BME280;67558;52.166;5.004;2023-07-13T08:13:13;101620.06;;;23.57;59.82
71384;BME280;67558;52.166;5.004;2023-07-13T08:15:39;101625.53;;;23.57;60.63
71384;BME280;67558;52.166;5.004;2023-07-13T08:18:05;101609.16;;;23.36;60.24
71384;BME280;67558;52.166;5.004;2023-07-13T08:20:31;101608.09;;;23.28;60.37
71384;BME280;67558;52.166;5.004;2023-07-13T08:22:56;101600.22;;;23.05;60.68
71384;BME280;67558;52.166;5.004;2023-07-13T08:25:22;101638.81;;;23.16;60.20
71384;BME280;67558;52.166;5.004;2023-07-13T08:27:48;101635.06;;;23.00;60.43
71384;BME280;67558;52.166;5.004;2023-07-13T08:30:13;101624.16;;;23.00;58.87
71384;BME280;67558;52.166;5.004;2023-07-13T08:32:38;101625.00;;;22.92;57.91
71384;BME280;67558;52.166;5.004;2023-07-13T08:35:05;101623.00;;;22.71;58.26
71384;BME280;67558;52.166;5.004;2023-07-13T08:37:30;101629.63;;;22.61;58.30
71384;BME280;67558;52.166;5.004;2023-07-13T08:39:56;101668.59;;;22.62;57.88
71384;BME280;67558;52.166;5.004;2023-07-13T08:45:18;101658.88;;;22.35;58.72
71384;BME280;67558;52.166;5.004;2023-07-13T08:47:52;101649.31;;;22.28;58.57
71384;BME280;67558;52.166;5.004;2023-07-13T08:50:21;101634.06;;;22.19;58.45
71384;BME280;67558;52.166;5.004;2023-07-13T08:52:49;101636.47;;;22.12;58.98
71384;BME280;67558;52.166;5.004;2023-07-13T08:55:22;101652.03;;;21.85;60.30
71384;BME280;67558;52.166;5.004;2023-07-13T08:57:54;101631.22;;;21.72;60.31
71384;BME280;67558;52.166;5.004;2023-07-13T09:00:34;101647.06;;;21.87;61.29
71384;BME280;67558;52.166;5.004;2023-07-13T09:03:03;101633.47;;;21.87;61.14
71384;BME280;67558;52.166;5.004;2023-07-13T09:05:33;101639.88;;;21.91;61.46
71384;BME280;67558;52.166;5.004;2023-07-13T09:08:38;101641.78;;;21.99;61.90
71384;BME280;67558;52.166;5.004;2023-07-13T09:11:45;101637.91;;;22.09;62.17
71384;BME280;67558;52.166;5.004;2023-07-13T09:16:50;101638.72;;;22.18;61.91
71384;BME280;67558;52.166;5.004;2023-07-13T09:19:24;101636.63;;;22.06;62.35
71384;BME280;67558;52.166;5.004;2023-07-13T09:21:53;101636.81;;;22.10;62.28
71384;BME280;67558;52.166;5.004;2023-07-13T09:26:47;101661.16;;;22.06;62.27
71384;BME280;67558;52.166;5.004;2023-07-13T09:29:26;101641.97;;;21.94;62.26
71384;BME280;67558;52.166;5.004;2023-07-13T09:31:55;101671.72;;;22.17;61.77
71384;BME280;67558;52.166;5.004;2023-07-13T09:34:23;101654.13;;;22.05;62.04
71384;BME280;67558;52.166;5.004;2023-07-13T09:36:49;101650.25;;;22.06;62.36
71384;BME280;67558;52.166;5.004;2023-07-13T09:39:41;101669.97;;;22.21;63.03
71384;BME280;67558;52.166;5.004;2023-07-13T09:42:15;101638.72;;;22.09;62.75
71384;BME280;67558;52.166;5.004;2023-07-13T09:45:00;101669.75;;;22.43;62.58
71384;BME280;67558;52.166;5.004;2023-07-13T09:47:30;101679.69;;;22.57;62.15
71384;BME280;67558;52.166;5.004;2023-07-13T09:50:01;101670.22;;;22.63;62.04
71384;BME280;67558;52.166;5.004;2023-07-13T09:52:28;101679.31;;;22.67;62.41
71384;BME280;67558;52.166;5.004;2023-07-13T09:55:04;101682.50;;;22.69;62.13
71384;BME280;67558;52.166;5.004;2023-07-13T09:57:30;101675.19;;;22.61;61.56
71384;BME280;67558;52.166;5.004;2023-07-13T09:59:56;101667.94;;;22.65;61.91
71384;BME280;67558;52.166;5.004;2023-07-13T10:05:06;101648.75;;;22.53;61.71
71384;BME280;67558;52.166;5.004;2023-07-13T10:07:38;101686.69;;;22.66;62.29
71384;BME280;67558;52.166;5.004;2023-07-13T10:10:17;101676.97;;;22.57;61.99
71384;BME280;67558;52.166;5.004;2023-07-13T10:12:43;101689.94;;;22.60;62.34
71384;BME280;67558;52.166;5.004;2023-07-13T10:15:21;101689.66;;;22.53;62.43
71384;BME280;67558;52.166;5.004;2023-07-13T10:17:47;101699.72;;;22.61;62.21
71384;BME280;67558;52.166;5.004;2023-07-13T10:20:12;101692.34;;;22.61;62.63
71384;BME280;67558;52.166;5.004;2023-07-13T10:22:50;101688.47;;;22.62;62.86
71384;BME280;67558;52.166;5.004;2023-07-13T10:25:24;101698.84;;;22.78;62.84
71384;BME280;67558;52.166;5.004;2023-07-13T10:27:53;101670.50;;;22.70;62.79
71384;BME280;67558;52.166;5.004;2023-07-13T10:32:49;101691.25;;;23.01;62.99
71384;BME280;67558;52.166;5.004;2023-07-13T10:35:17;101699.06;;;23.11;62.53
71384;BME280;67558;52.166;5.004;2023-07-13T10:38:07;101702.75;;;23.15;62.38
71384;BME280;67558;52.166;5.004;2023-07-13T10:40:40;101706.41;;;23.19;62.35
71384;BME280;67558;52.166;5.004;2023-07-13T10:43:28;101698.75;;;23.34;61.43
71384;BME280;67558;52.166;5.004;2023-07-13T10:45:57;101696.06;;;23.55;60.35
71384;BME280;67558;52.166;5.004;2023-07-13T10:48:24;101685.34;;;23.49;59.51
71384;BME280;67558;52.166;5.004;2023-07-13T10:50:51;101710.75;;;23.71;59.34
71384;BME280;67558;52.166;5.004;2023-07-13T10:58:31;101692.34;;;24.01;58.31
71384;BME280;67558;52.166;5.004;2023-07-13T11:01:23;101705.72;;;24.15;57.52
71384;BME280;67558;52.166;5.004;2023-07-13T11:04:02;101709.41;;;23.98;58.00
71384;BME280;67558;52.166;5.004;2023-07-13T11:06:39;101694.03;;;23.73;59.02
71384;BME280;67558;52.166;5.004;2023-07-13T11:12:02;101711.34;;;23.77;58.27
71384;BME280;67558;52.166;5.004;2023-07-13T11:14:34;101723.72;;;23.74;58.48
71384;BME280;67558;52.166;5.004;2023-07-13T11:17:29;101737.09;;;23.76;59.84
71384;BME280;67558;52.166;5.004;2023-07-13T11:25:31;101733.19;;;23.56;59.47
71384;BME280;67558;52.166;5.004;2023-07-13T11:30:41;101726.72;;;23.60;58.46
71384;BME280;67558;52.166;5.004;2023-07-13T11:33:28;101732.25;;;23.51;59.17
71384;BME280;67558;52.166;5.004;2023-07-13T11:36:05;101731.28;;;23.47;58.54
71384;BME280;67558;52.166;5.004;2023-07-13T11:38:47;101703.00;;;23.22;58.97
71384;BME280;67558;52.166;5.004;2023-07-13T11:41:19;101701.19;;;22.97;59.55
71384;BME280;67558;52.166;5.004;2023-07-13T11:43:49;101723.81;;;22.97;59.58
71384;BME280;67558;52.166;5.004;2023-07-13T11:46:21;101739.06;;;22.98;59.94
71384;BME280;67558;52.166;5.004;2023-07-13T11:48:48;101740.16;;;22.97;59.84
71384;BME280;67558;52.166;5.004;2023-07-13T11:51:21;101718.41;;;22.80;59.24
71384;BME280;67558;52.166;5.004;2023-07-13T11:53:50;101747.09;;;22.95;59.27
71384;BME280;67558;52.166;5.004;2023-07-13T11:56:16;101653.28;;;22.40;58.98
71384;BME280;67558;52.166;5.004;2023-07-13T11:58:41;101734.59;;;22.94;58.60
71384;BME280;67558;52.166;5.004;2023-07-13T12:01:17;101736.16;;;22.95;58.42
71384;BME280;67558;52.166;5.004;2023-07-13T12:03:43;101745.78;;;23.09;57.64
71384;BME280;67558;52.166;5.004;2023-07-13T12:06:27;101742.91;;;23.36;56.92
71384;BME280;67558;52.166;5.004;2023-07-13T12:08:56;101744.81;;;23.44;56.58
71384;BME280;67558;52.166;5.004;2023-07-13T12:11:22;101741.44;;;23.47;56.52
71384;BME280;67558;52.166;5.004;2023-07-13T12:13:47;101737.81;;;23.55;56.33
71384;BME280;67558;52.166;5.004;2023-07-13T12:16:32;101742.63;;;23.58;55.09
71384;BME280;67558;52.166;5.004;2023-07-13T12:18:59;101734.59;;;23.62;55.64
71384;BME280;67558;52.166;5.004;2023-07-13T12:21:38;101732.91;;;23.69;55.36
71384;BME280;67558;52.166;5.004;2023-07-13T12:24:04;101743.47;;;23.80;55.20
71384;BME280;67558;52.166;5.004;2023-07-13T12:26:31;101705.59;;;23.69;55.30
71384;BME280;67558;52.166;5.004;2023-07-13T12:29:00;101729.16;;;23.83;54.93
71384;BME280;67558;52.166;5.004;2023-07-13T12:31:47;101746.28;;;23.92;54.85
71384;BME280;67558;52.166;5.004;2023-07-13T12:34:15;101749.94;;;23.96;54.49
71384;BME280;67558;52.166;5.004;2023-07-13T12:36:47;101742.88;;;23.95;54.50
71384;BME280;67558;52.166;5.004;2023-07-13T12:39:25;101733.34;;;24.01;53.71
71384;BME280;67558;52.166;5.004;2023-07-13T12:41:53;101718.44;;;23.99;53.47
71384;BME280;67558;52.166;5.004;2023-07-13T12:44:29;101741.59;;;24.14;52.64
71384;BME280;67558;52.166;5.004;2023-07-13T12:47:04;101738.19;;;24.17;51.85
71384;BME280;67558;52.166;5.004;2023-07-13T12:49:40;101740.38;;;24.23;52.05
71384;BME280;67558;52.166;5.004;2023-07-13T12:52:23;101727.72;;;24.19;51.49
71384;BME280;67558;52.166;5.004;2023-07-13T12:54:57;101727.72;;;24.19;50.92
71384;BME280;67558;52.166;5.004;2023-07-13T12:57:23;101740.72;;;24.22;51.21
71384;BME280;67558;52.166;5.004;2023-07-13T12:59:52;101730.00;;;24.17;51.58
71384;BME280;67558;52.166;5.004;2023-07-13T13:02:28;101744.72;;;24.24;51.22
71384;BME280;67558;52.166;5.004;2023-07-13T13:04:55;101741.19;;;24.24;50.88
71384;BME280;67558;52.166;5.004;2023-07-13T13:07:22;101729.13;;;24.25;49.93
71384;BME280;67558;52.166;5.004;2023-07-13T13:09:48;101736.09;;;24.35;50.21
71384;BME280;67558;52.166;5.004;2023-07-13T13:12:13;101736.00;;;24.43;49.97
71384;BME280;67558;52.166;5.004;2023-07-13T13:14:40;101735.22;;;24.43;49.73
71384;BME280;67558;52.166;5.004;2023-07-13T13:17:18;101749.81;;;24.47;49.45
71384;BME280;67558;52.166;5.004;2023-07-13T13:19:44;101752.25;;;24.48;49.45
71384;BME280;67558;52.166;5.004;2023-07-13T13:22:10;101736.06;;;24.56;49.41
71384;BME280;67558;52.166;5.004;2023-07-13T13:24:35;101755.59;;;24.66;48.98